METAR Data
IDs: Format: Raw Decoded Include TAF

Data at: 1434 UTC 04 Aug 2021

ETHA 041420Z 10005KT 9999 -RA SCT010 BKN070 14/12 Q1015 BLACKBLU BLU TEMPO GRN